Fukui, Japan

10:55 PM JST on September 03, 2015 (GMT +0900)
Komatsu | | Change Station
CLOSE
Current Station
Airport
Location: Komatsu AB,
Elevation: 30 ft
Nearby Weather Stations

Elev 30 ft 36.39 °N, 136.41 °E | Updated 55 minutes ago

Mostly Cloudy
Mostly Cloudy
73 °F
Feels Like 73 °F
N
4
Wind Variable Wind from South

Today
High -- | Low -- °F
--% Chance of Precip.
Yesterday
High -- | Low -- °F
Precip. -- in
5:27 AM 6:21 PM
Waning Gibbous, 70% visible
Pressure 29.80 in
Visibility 6.2 miles
Clouds Few 1000 ft
Mostly Cloudy 4000 ft
Mostly Cloudy 8000 ft
Dew Point 70 °F
Humidity 88%
Rainfall 0.00 in
Snow Depth Not available.
UV 0 out of 12
Pollen Not available.
Air Quality Not available.
Flu Activity Not available.
METAR RJNK 031300Z 17003KT 9999 FEW010 BKN040 BKN080 23/21 Q1009
Pressure 29.80 in
Visibility 6.2 miles
Clouds Few 1000 ft
Mostly Cloudy 4000 ft
Mostly Cloudy 8000 ft
Dew Point 70 °F
Humidity 88%
Rainfall 0.00 in
Snow Depth Not available.
UV 0 out of 12
Pollen Not available.
Air Quality Not available.
Flu Activity Not available.
METAR RJNK 031300Z 17003KT 9999 FEW010 BKN040 BKN080 23/21 Q1009

10-Day Weather Forecast

×

Almanac

Astronomy

Sep. 03, 2015 Rise Set
Actual Time
Civil Twilight
Nautical Twilight
Astronomical Twilight
Moon
Length of Visible Light
Length of Day
Tomorrow will be .
, % of the Moon is Illuminated

Today's Extremes

Country Highs Country Lows

Community

WunderPhotos

Upload Photos

1,851,952 photos uploaded!

WunderBlogs® & News

Nearby

Air Quality

  Air Quality AQ Index Pollutant
Not available.

Snow Depth

Station Depth Elevation

Earthquake Activity

City Distance Mag. Time & Date
Minimum magnitude displayed is 2.5.

Coastal Water Temperatures

Place Temperature

Stations

Nearby Weather Stations

Station Location Temp. Windchill Dew Point Humidity Wind Precip. Elev Updated Type